Startpagina
METAR-TAF:

METAR-TAF

Vliegvelden :

Windhoek, Namibië

breedte: 22-36-44S, lengte: 017-04-50E, hoogte: 1699 m

Actueel weer

Dit bericht is 1 uur en het 11 minuten geleden gemaakt, om 02:00 UTC
Wind 3 kt uit variabele richting
Temperatuur 20°C
Vochtigheid 17%
Druk 1023 hPa
Zicht 10 km of meer
geen wolken onder 1500 m en geen cumulonimbus

METAR: FYWE 290200Z VRB03KT CAVOK 20/M06 Q1023

Tijdstip: 05:11 (03:11 UTC)

Verwachting

Dit bericht is 1 uur en het 11 minuten geleden gemaakt, om 02:00 UTC
Verwachting geldig van 29 om 03 UTC tot 29 om 12 UTC
Wind 6 kt uit het zuidzuidoosten
Zicht 10 km of meer
geen wolken onder 1500 m en geen cumulonimbus

TAF: FYWE 290200Z 2903/2912 16006KT CAVOK

Waarnemingen en weersverwachtingen van meer dan 4000 vliegvelden (METAR en TAF).

De beschikbare stations zijn de gele en rode punten op de kaart.

Ga met uw muis naar het station om de naam te zien.

Klik dan om waarnemingen en weersverwachtingen te zien.

kaart wijzigen: klik op de groene knoppen met een zwart kruis om in te zoomen, op de groene knop met een streepje om uit te zoomen of op de groene pijlen voor aangrenzende kaarten.


METAR-TAF: